createdAt,value
2023-03-22T00:00:15.575Z,7.15
2023-03-22T00:02:23.218Z,7.38
2023-03-22T00:03:25.581Z,7.38
2023-03-22T00:04:28.018Z,7.90
2023-03-22T00:05:33.386Z,7.32
2023-03-22T00:06:35.669Z,7.25
2023-03-22T00:07:38.040Z,8.75
2023-03-22T00:08:40.050Z,9.05
2023-03-22T00:09:42.220Z,7.93
2023-03-22T00:10:44.213Z,7.97
2023-03-22T00:11:46.412Z,7.78
2023-03-22T00:12:48.449Z,7.95
2023-03-22T00:13:52.751Z,8.20
2023-03-22T00:14:55.314Z,7.85
2023-03-22T00:15:57.885Z,8.30
2023-03-22T00:17:00.103Z,8.48
2023-03-22T00:18:05.874Z,8.35
2023-03-22T00:19:07.890Z,8.63
2023-03-22T00:20:11.562Z,8.48
2023-03-22T00:21:15.889Z,8.27
2023-03-22T00:22:18.028Z,8.35
2023-03-22T00:23:20.549Z,9.38
2023-03-22T00:24:22.548Z,8.07
2023-03-22T00:25:24.436Z,8.98
2023-03-22T00:26:26.429Z,8.73
2023-03-22T00:27:28.480Z,8.02
2023-03-22T00:28:30.824Z,8.10
2023-03-22T00:29:32.825Z,7.07
2023-03-22T00:30:35.511Z,7.97
2023-03-22T00:31:37.552Z,8.20
2023-03-22T00:32:39.664Z,7.55
2023-03-22T00:33:41.838Z,8.80
2023-03-22T00:34:44.529Z,8.13
2023-03-22T00:35:55.016Z,8.57
2023-03-22T00:36:57.087Z,7.65
2023-03-22T00:38:06.387Z,8.07
2023-03-22T00:39:08.904Z,7.25
2023-03-22T00:40:14.696Z,7.90
2023-03-22T00:41:20.617Z,7.80
2023-03-22T00:42:22.692Z,8.20
2023-03-22T00:43:24.811Z,7.30
2023-03-22T00:44:27.175Z,7.60
2023-03-22T00:45:29.281Z,7.07
2023-03-22T00:46:31.520Z,8.50
2023-03-22T00:47:33.878Z,7.75
2023-03-22T00:48:36.159Z,8.52
2023-03-22T00:49:38.150Z,7.90
2023-03-22T00:50:41.492Z,8.05
2023-03-22T00:51:43.493Z,7.97
2023-03-22T00:52:45.508Z,7.47
2023-03-22T00:53:51.136Z,8.02
2023-03-22T00:54:53.425Z,7.70
2023-03-22T00:55:57.364Z,7.07
2023-03-22T00:56:59.408Z,7.07
2023-03-22T00:58:02.011Z,7.03
2023-03-22T00:59:04.639Z,7.35
2023-03-22T01:00:13.985Z,8.00
2023-03-22T01:01:16.237Z,7.82
2023-03-22T01:02:18.221Z,7.07
2023-03-22T01:03:22.231Z,7.18
2023-03-22T01:04:26.492Z,7.57
2023-03-22T01:05:28.594Z,6.50
2023-03-22T01:06:30.774Z,6.97
2023-03-22T01:07:33.546Z,6.97
2023-03-22T01:08:39.324Z,7.50
2023-03-22T01:11:04.668Z,6.63
2023-03-22T01:12:07.168Z,8.05
2023-03-22T01:13:09.998Z,7.18
2023-03-22T01:14:14.073Z,6.55
2023-03-22T01:16:19.219Z,6.88
2023-03-22T01:17:21.431Z,7.25
2023-03-22T01:18:23.978Z,7.13
2023-03-22T01:19:27.594Z,6.55
2023-03-22T01:20:30.447Z,6.50
2023-03-22T01:21:32.683Z,7.07
2023-03-22T01:22:34.743Z,7.55
2023-03-22T01:23:37.741Z,7.78
2023-03-22T01:24:39.662Z,7.07
2023-03-22T01:25:41.739Z,7.35
2023-03-22T01:26:43.659Z,7.63
2023-03-22T01:27:46.190Z,7.15
2023-03-22T01:28:48.211Z,7.35
2023-03-22T01:29:50.971Z,7.10
2023-03-22T01:30:53.158Z,8.20
2023-03-22T01:31:55.222Z,7.47
2023-03-22T01:32:57.444Z,6.95
2023-03-22T01:33:59.415Z,6.45
2023-03-22T01:35:01.494Z,6.45
2023-03-22T01:36:04.198Z,7.47
2023-03-22T01:37:06.421Z,6.18
2023-03-22T01:38:08.510Z,6.63
2023-03-22T01:39:10.849Z,6.60
2023-03-22T01:40:14.613Z,7.78
2023-03-22T01:41:17.816Z,7.15
2023-03-22T01:42:22.194Z,7.85
2023-03-22T01:43:24.222Z,6.93
2023-03-22T01:44:31.055Z,8.10
2023-03-22T01:45:37.012Z,6.85
2023-03-22T01:46:41.433Z,7.07
2023-03-22T01:47:54.275Z,6.80
2023-03-22T01:48:56.518Z,6.35
2023-03-22T01:49:58.627Z,6.95
2023-03-22T01:51:11.257Z,7.55
2023-03-22T01:52:15.704Z,6.55
2023-03-22T01:53:19.744Z,6.43
2023-03-22T01:54:47.382Z,6.93
2023-03-22T01:55:50.004Z,5.97
2023-03-22T01:56:52.119Z,6.22
2023-03-22T01:57:55.626Z,6.78
2023-03-22T01:58:57.787Z,6.07
2023-03-22T02:00:00.816Z,6.25
2023-03-22T02:01:04.447Z,7.13
2023-03-22T02:02:07.184Z,6.80
2023-03-22T02:03:10.388Z,8.93
2023-03-22T02:04:16.885Z,7.68
2023-03-22T02:05:19.962Z,7.20
2023-03-22T02:06:22.181Z,7.32
2023-03-22T02:07:27.292Z,6.65
2023-03-22T02:08:31.039Z,6.15
2023-03-22T02:09:34.414Z,7.57
2023-03-22T02:10:36.666Z,6.95
2023-03-22T02:11:42.224Z,6.13
2023-03-22T02:12:54.259Z,6.75
2023-03-22T02:14:17.900Z,5.85
2023-03-22T02:15:28.048Z,6.03
2023-03-22T02:16:54.185Z,5.93
2023-03-22T02:18:34.671Z,7.25
2023-03-22T02:19:45.695Z,6.18
2023-03-22T02:20:56.720Z,6.35
2023-03-22T02:22:28.280Z,6.43
2023-03-22T02:24:07.436Z,6.00
2023-03-22T02:25:24.553Z,6.22
2023-03-22T02:26:47.174Z,6.85
2023-03-22T02:28:14.840Z,6.45
2023-03-22T02:29:46.143Z,6.82
2023-03-22T02:30:51.446Z,6.43
2023-03-22T02:32:36.886Z,6.03
2023-03-22T02:34:00.086Z,6.22
2023-03-22T02:35:27.991Z,6.63
2023-03-22T02:37:23.777Z,6.40
2023-03-22T02:38:47.853Z,6.07
2023-03-22T02:39:59.711Z,5.72
2023-03-22T02:41:04.729Z,6.93
2023-03-22T02:42:25.168Z,6.53
2023-03-22T02:44:02.047Z,6.20
2023-03-22T02:45:41.747Z,6.13
2023-03-22T02:46:48.901Z,6.88
2023-03-22T02:48:03.042Z,6.53
2023-03-22T02:49:34.336Z,6.25
2023-03-22T02:50:56.901Z,6.63
2023-03-22T02:52:01.714Z,6.05
2023-03-22T02:53:10.731Z,6.47
2023-03-22T02:54:44.900Z,6.25
2023-03-22T02:56:03.813Z,5.72
2023-03-22T02:57:14.198Z,7.65
2023-03-22T02:58:30.221Z,5.85
2023-03-22T02:59:37.700Z,6.35
2023-03-22T03:00:42.045Z,5.68
2023-03-22T03:01:54.834Z,7.30
2023-03-22T03:03:02.171Z,6.90
2023-03-22T03:04:09.757Z,6.20
2023-03-22T03:05:13.720Z,5.93
2023-03-22T03:06:20.849Z,6.40
2023-03-22T03:07:27.504Z,6.57
2023-03-22T03:08:31.120Z,7.25
2023-03-22T03:09:33.870Z,6.45
2023-03-22T03:10:36.471Z,7.15
2023-03-22T03:11:38.467Z,6.40
2023-03-22T03:12:40.609Z,5.38
2023-03-22T03:13:42.691Z,6.15
2023-03-22T03:14:45.016Z,5.68
2023-03-22T03:15:55.462Z,6.18
2023-03-22T03:17:25.100Z,6.38
2023-03-22T03:19:01.698Z,5.82
2023-03-22T03:20:22.060Z,6.13
2023-03-22T03:21:45.571Z,5.80
2023-03-22T03:23:07.428Z,5.90
2023-03-22T03:24:23.636Z,6.63
2023-03-22T03:25:51.786Z,6.20
2023-03-22T03:26:56.337Z,6.25
2023-03-22T03:28:10.251Z,5.72
2023-03-22T03:29:15.698Z,5.82
2023-03-22T03:30:31.832Z,6.43
2023-03-22T03:31:39.939Z,6.53
2023-03-22T03:32:52.939Z,6.47
2023-03-22T03:34:05.969Z,5.45
2023-03-22T03:35:22.757Z,5.80
2023-03-22T03:37:35.433Z,5.57
2023-03-22T03:38:42.733Z,5.88
2023-03-22T03:40:09.761Z,5.85
2023-03-22T03:41:18.941Z,5.65
2023-03-22T03:42:22.825Z,5.72
2023-03-22T03:43:25.830Z,5.53
2023-03-22T03:44:30.657Z,5.75
2023-03-22T03:45:35.025Z,5.28
2023-03-22T03:46:37.405Z,5.63
2023-03-22T03:47:39.778Z,6.65
2023-03-22T03:48:47.176Z,5.85
2023-03-22T03:49:50.446Z,6.13
2023-03-22T03:50:54.426Z,6.03
2023-03-22T03:51:56.786Z,5.30
2023-03-22T03:52:59.262Z,5.80
2023-03-22T03:54:01.278Z,5.60
2023-03-22T03:55:03.372Z,5.82
2023-03-22T03:56:05.987Z,5.20
2023-03-22T03:57:07.953Z,6.55
2023-03-22T03:58:10.374Z,6.10
2023-03-22T03:59:12.541Z,5.65
2023-03-22T04:00:15.455Z,5.72
2023-03-22T04:01:19.875Z,5.53
2023-03-22T04:02:21.867Z,6.50
2023-03-22T04:03:23.836Z,6.30
2023-03-22T04:04:29.024Z,5.75
2023-03-22T04:05:31.150Z,5.57
2023-03-22T04:06:34.903Z,6.18
2023-03-22T04:07:37.582Z,5.15
2023-03-22T04:08:39.655Z,6.32
2023-03-22T04:09:41.619Z,5.90
2023-03-22T04:10:44.392Z,5.68
2023-03-22T04:11:46.791Z,5.80
2023-03-22T04:12:49.030Z,5.65
2023-03-22T04:13:51.076Z,5.75
2023-03-22T04:14:53.403Z,5.63
2023-03-22T04:15:57.672Z,5.35
2023-03-22T04:16:59.767Z,5.80
2023-03-22T04:18:01.919Z,5.07
2023-03-22T04:19:04.010Z,5.28
2023-03-22T04:20:11.282Z,5.85
2023-03-22T04:21:13.624Z,6.50
2023-03-22T04:22:18.623Z,5.25
2023-03-22T04:23:23.263Z,5.43
2023-03-22T04:24:25.419Z,6.18
2023-03-22T04:25:30.391Z,5.65
2023-03-22T04:26:33.609Z,6.10
2023-03-22T04:27:35.717Z,5.65
2023-03-22T04:28:37.705Z,5.22
2023-03-22T04:29:39.756Z,5.45
2023-03-22T04:30:45.861Z,5.65
2023-03-22T04:31:48.262Z,5.22
2023-03-22T04:32:50.385Z,6.10
2023-03-22T04:33:56.728Z,5.60
2023-03-22T04:34:58.791Z,7.93
2023-03-22T04:36:02.539Z,14.18
2023-03-22T04:37:06.279Z,10.90
2023-03-22T04:38:09.892Z,9.50
2023-03-22T04:39:12.667Z,7.68
2023-03-22T04:40:21.078Z,5.75
2023-03-22T04:41:23.726Z,6.68
2023-03-22T04:42:26.760Z,6.43
2023-03-22T04:43:28.796Z,6.68
2023-03-22T04:44:31.108Z,5.88
2023-03-22T04:45:35.127Z,6.38
2023-03-22T04:47:40.014Z,6.43
2023-03-22T04:48:43.071Z,5.28
2023-03-22T04:49:45.118Z,5.28
2023-03-22T04:50:47.069Z,5.65
2023-03-22T04:51:49.089Z,5.90
2023-03-22T04:52:51.228Z,5.88
2023-03-22T04:53:54.132Z,5.55
2023-03-22T04:54:56.148Z,6.20
2023-03-22T04:55:58.404Z,5.25
2023-03-22T04:57:01.276Z,6.78
2023-03-22T04:58:03.381Z,6.32
2023-03-22T04:59:05.427Z,5.47
2023-03-22T05:00:11.073Z,6.03
2023-03-22T05:01:15.062Z,5.50
2023-03-22T05:03:21.764Z,5.47
2023-03-22T05:04:23.958Z,5.63
2023-03-22T05:05:25.997Z,5.47
2023-03-22T05:06:28.173Z,5.57
2023-03-22T05:07:30.428Z,6.65
2023-03-22T05:08:33.340Z,5.72
2023-03-22T05:09:35.552Z,5.93
2023-03-22T05:10:41.092Z,5.80
2023-03-22T05:11:43.459Z,6.00
2023-03-22T05:12:45.672Z,5.88
2023-03-22T05:13:47.588Z,5.90
2023-03-22T05:14:49.625Z,5.15
2023-03-22T05:15:52.011Z,6.32
2023-03-22T05:16:54.500Z,5.95
2023-03-22T05:17:56.534Z,5.80
2023-03-22T05:18:58.578Z,6.18
2023-03-22T05:20:08.441Z,6.35
2023-03-22T05:21:15.762Z,5.75
2023-03-22T05:22:19.450Z,6.07
2023-03-22T05:23:22.462Z,5.70
2023-03-22T05:24:24.623Z,6.30
2023-03-22T05:25:26.779Z,6.25
2023-03-22T05:26:28.958Z,6.30
2023-03-22T05:27:35.219Z,5.53
2023-03-22T05:28:38.820Z,6.05
2023-03-22T05:29:45.235Z,5.72
2023-03-22T05:30:49.055Z,5.78
2023-03-22T05:31:51.246Z,5.15
2023-03-22T05:33:03.439Z,6.10
2023-03-22T05:34:06.175Z,5.65
2023-03-22T05:35:08.624Z,5.50
2023-03-22T05:36:13.980Z,5.90
2023-03-22T05:37:17.019Z,6.10
2023-03-22T05:38:19.134Z,5.63
2023-03-22T05:39:21.244Z,6.30
2023-03-22T05:40:23.939Z,5.70
2023-03-22T05:41:26.163Z,5.78
2023-03-22T05:42:28.371Z,6.13
2023-03-22T05:43:30.468Z,6.90
2023-03-22T05:44:32.548Z,6.05
2023-03-22T05:45:37.046Z,5.93
2023-03-22T05:46:39.087Z,5.78
2023-03-22T05:47:41.205Z,5.50
2023-03-22T05:48:43.490Z,9.70
2023-03-22T05:49:45.879Z,17.75
2023-03-22T05:50:47.946Z,8.73
2023-03-22T05:51:50.736Z,7.07
2023-03-22T05:52:52.930Z,6.90
2023-03-22T05:53:55.414Z,6.10
2023-03-22T05:54:57.490Z,6.70
2023-03-22T05:56:00.909Z,6.90
2023-03-22T05:57:03.152Z,6.38
2023-03-22T05:58:05.562Z,6.68
2023-03-22T05:59:07.826Z,5.65
2023-03-22T06:00:13.585Z,6.47
2023-03-22T06:01:20.624Z,6.07
2023-03-22T06:02:23.068Z,5.53
2023-03-22T06:03:25.143Z,6.40
2023-03-22T06:04:27.354Z,5.53
2023-03-22T06:05:31.991Z,6.20
2023-03-22T06:06:33.966Z,6.35
2023-03-22T06:07:36.059Z,5.82
2023-03-22T06:08:39.694Z,6.03
2023-03-22T06:09:41.865Z,5.78
2023-03-22T06:10:43.776Z,5.43
2023-03-22T06:11:45.832Z,6.35
2023-03-22T06:12:47.940Z,6.47
2023-03-22T06:13:50.086Z,5.38
2023-03-22T06:14:52.484Z,6.18
2023-03-22T06:15:54.520Z,5.97
2023-03-22T06:16:56.680Z,6.60
2023-03-22T06:17:58.706Z,6.45
2023-03-22T06:19:00.786Z,6.38
2023-03-22T06:20:09.492Z,6.65
2023-03-22T06:21:11.444Z,6.65
2023-03-22T06:22:13.887Z,6.70
2023-03-22T06:23:16.026Z,6.38
2023-03-22T06:24:18.107Z,5.90
2023-03-22T06:25:20.158Z,6.38
2023-03-22T06:26:22.194Z,6.00
2023-03-22T06:27:24.216Z,6.82
2023-03-22T06:28:30.016Z,5.32
2023-03-22T06:29:32.069Z,6.90
2023-03-22T06:30:34.106Z,6.53
2023-03-22T06:31:36.411Z,7.13
2023-03-22T06:32:38.480Z,6.20
2023-03-22T06:33:40.458Z,7.65
2023-03-22T06:34:42.739Z,8.00
2023-03-22T06:35:44.920Z,7.15
2023-03-22T06:36:46.992Z,6.80
2023-03-22T06:37:49.126Z,7.13
2023-03-22T06:38:51.115Z,6.57
2023-03-22T06:39:53.527Z,6.88
2023-03-22T06:40:55.428Z,6.70
2023-03-22T06:41:57.457Z,7.03
2023-03-22T06:43:02.284Z,7.57
2023-03-22T06:44:06.380Z,6.38
2023-03-22T06:45:12.699Z,7.65
2023-03-22T06:46:14.815Z,6.70
2023-03-22T06:47:16.983Z,6.70
2023-03-22T06:48:19.286Z,6.38
2023-03-22T06:49:22.134Z,6.72
2023-03-22T06:50:24.091Z,6.85
2023-03-22T06:51:26.275Z,7.30
2023-03-22T06:52:28.438Z,7.65
2023-03-22T06:53:30.825Z,7.70
2023-03-22T06:54:32.949Z,7.45
2023-03-22T06:55:35.291Z,7.13
2023-03-22T06:56:37.416Z,7.40
2023-03-22T06:57:39.445Z,6.85
2023-03-22T06:58:41.889Z,7.20
2023-03-22T06:59:43.934Z,6.30
2023-03-22T07:00:46.296Z,6.93
2023-03-22T07:01:48.766Z,7.30
2023-03-22T07:02:52.769Z,6.80
2023-03-22T07:04:56.915Z,6.25
2023-03-22T07:06:08.509Z,7.00
2023-03-22T07:07:10.534Z,6.15
2023-03-22T07:08:12.713Z,7.22
2023-03-22T07:09:14.686Z,5.75
2023-03-22T07:10:16.918Z,7.15
2023-03-22T07:11:19.014Z,6.95
2023-03-22T07:12:21.182Z,6.50
2023-03-22T07:13:23.822Z,6.97
2023-03-22T07:14:26.150Z,6.40
2023-03-22T07:15:28.389Z,7.60
2023-03-22T07:16:30.524Z,7.00
2023-03-22T07:17:32.927Z,6.97
2023-03-22T07:18:34.946Z,5.55
2023-03-22T07:19:37.069Z,5.13
2023-03-22T07:20:41.819Z,6.93
2023-03-22T07:21:44.332Z,7.40
2023-03-22T07:22:46.727Z,6.63
2023-03-22T07:23:48.763Z,6.75
2023-03-22T07:24:57.190Z,6.60
2023-03-22T07:26:01.153Z,6.70
2023-03-22T07:27:03.480Z,6.82
2023-03-22T07:56:04.213Z,8.38
2023-03-22T07:57:07.138Z,6.07
2023-03-22T07:58:09.571Z,7.80
2023-03-22T07:59:11.804Z,6.80
2023-03-22T08:00:14.968Z,6.63
2023-03-22T08:01:17.245Z,7.72
2023-03-22T08:02:19.283Z,6.13
2023-03-22T08:03:22.488Z,7.93
2023-03-22T08:04:25.319Z,7.07
2023-03-22T08:05:27.515Z,6.60
2023-03-22T08:06:30.085Z,7.75
2023-03-22T08:07:32.807Z,7.43
2023-03-22T08:08:37.252Z,7.15
2023-03-22T08:09:39.476Z,7.97
2023-03-22T08:10:41.623Z,7.47
2023-03-22T08:11:43.928Z,8.23
2023-03-22T08:12:46.008Z,7.15
2023-03-22T08:13:48.148Z,7.80
2023-03-22T08:14:51.414Z,8.30
2023-03-22T08:15:53.530Z,8.02
2023-03-22T08:16:55.814Z,7.55
2023-03-22T08:17:58.350Z,8.00
2023-03-22T08:19:00.625Z,5.78
2023-03-22T08:20:08.751Z,7.28
2023-03-22T08:21:11.300Z,7.50
2023-03-22T08:22:13.858Z,8.55
2023-03-22T08:23:16.514Z,7.10
2023-03-22T08:24:18.654Z,7.32
2023-03-22T08:25:21.820Z,12.02
2023-03-22T08:26:24.497Z,8.88
2023-03-22T08:27:27.528Z,17.90
2023-03-22T08:28:29.658Z,7.90
2023-03-22T08:29:31.818Z,8.70
2023-03-22T08:30:34.090Z,8.30
2023-03-22T08:31:36.062Z,7.03
2023-03-22T08:32:38.325Z,8.40
2023-03-22T08:33:40.531Z,7.63
2023-03-22T08:34:43.914Z,7.72
2023-03-22T08:35:46.781Z,8.55
2023-03-22T08:36:48.979Z,7.18
2023-03-22T08:37:57.310Z,8.05
2023-03-22T08:38:59.632Z,8.35
2023-03-22T08:40:01.745Z,7.95
2023-03-22T08:41:04.410Z,7.25
2023-03-22T08:42:06.435Z,8.60
2023-03-22T08:43:08.839Z,7.85
2023-03-22T08:44:11.359Z,8.02
2023-03-22T08:45:13.565Z,7.50
2023-03-22T08:46:17.366Z,8.10
2023-03-22T08:47:19.484Z,7.90
2023-03-22T08:48:21.598Z,8.05
2023-03-22T08:49:23.862Z,7.50
2023-03-22T08:50:26.116Z,7.47
2023-03-22T08:51:29.545Z,8.27
2023-03-22T08:52:31.615Z,7.63
2023-03-22T08:53:33.851Z,8.63
2023-03-22T08:54:36.339Z,8.38
2023-03-22T08:55:40.202Z,8.43
2023-03-22T08:56:42.715Z,8.30
2023-03-22T08:57:50.587Z,7.40
2023-03-22T08:58:52.597Z,8.50
2023-03-22T08:59:54.879Z,8.50
2023-03-22T09:00:56.895Z,8.52
2023-03-22T09:01:59.347Z,8.15
2023-03-22T09:03:01.497Z,7.80
2023-03-22T09:04:04.659Z,8.45
2023-03-22T09:05:07.123Z,8.52
2023-03-22T09:06:10.774Z,8.85
2023-03-22T09:07:12.955Z,8.45
2023-03-22T09:08:19.130Z,7.50
2023-03-22T09:09:21.794Z,8.00
2023-03-22T09:10:24.003Z,7.85
2023-03-22T09:11:26.293Z,7.60
2023-03-22T09:12:30.083Z,8.15
2023-03-22T09:13:32.398Z,7.53
2023-03-22T09:14:34.567Z,7.22
2023-03-22T09:15:36.875Z,7.05
2023-03-22T09:16:39.153Z,8.82
2023-03-22T09:17:42.108Z,8.13
2023-03-22T09:18:44.930Z,7.20
2023-03-22T09:19:48.118Z,8.13
2023-03-22T09:20:50.547Z,7.15
2023-03-22T09:21:52.802Z,6.30
2023-03-22T09:22:54.984Z,7.25
2023-03-22T09:23:57.451Z,6.57
2023-03-22T09:24:59.622Z,7.50
2023-03-22T09:26:04.044Z,6.68
2023-03-22T09:27:06.123Z,7.15
2023-03-22T09:28:08.215Z,7.28
2023-03-22T09:29:11.117Z,7.38
2023-03-22T09:30:13.564Z,8.27
2023-03-22T09:31:18.508Z,8.00
2023-03-22T09:32:22.357Z,9.35
2023-03-22T09:33:24.566Z,6.70
2023-03-22T09:34:27.309Z,8.65
2023-03-22T09:35:29.402Z,8.02
2023-03-22T09:36:32.602Z,7.43
2023-03-22T09:37:34.784Z,9.27
2023-03-22T09:38:36.807Z,7.55
2023-03-22T09:39:40.411Z,7.65
2023-03-22T09:41:01.021Z,7.97
2023-03-22T09:42:06.475Z,6.10
2023-03-22T09:43:12.066Z,6.00
2023-03-22T09:44:35.192Z,6.80
2023-03-22T09:45:44.222Z,7.03
2023-03-22T09:46:49.351Z,7.85
2023-03-22T09:47:55.509Z,7.32
2023-03-22T09:49:00.412Z,8.27
2023-03-22T09:50:12.167Z,6.38
2023-03-22T09:51:21.666Z,7.88
2023-03-22T09:52:23.710Z,8.30
2023-03-22T09:53:28.547Z,9.00
2023-03-22T09:54:42.227Z,7.95
2023-03-22T09:55:47.014Z,8.27
2023-03-22T09:56:59.112Z,8.73
2023-03-22T09:58:07.100Z,7.57
2023-03-22T09:59:19.089Z,9.57
2023-03-22T10:00:33.644Z,7.70
2023-03-22T10:02:00.645Z,6.28
2023-03-22T10:03:20.256Z,8.02
2023-03-22T10:04:50.120Z,7.88
2023-03-22T10:06:05.294Z,6.25
2023-03-22T10:07:39.022Z,8.13
2023-03-22T10:09:07.008Z,7.93
2023-03-22T10:10:12.352Z,7.35
2023-03-22T10:11:46.085Z,7.72
2023-03-22T10:12:58.333Z,9.45
2023-03-22T10:14:13.627Z,12.38
2023-03-22T10:15:21.645Z,9.02
2023-03-22T10:16:33.287Z,8.40
2023-03-22T10:17:37.198Z,9.10
2023-03-22T10:18:45.523Z,6.45
2023-03-22T10:20:01.179Z,7.70
2023-03-22T10:21:06.797Z,8.60
2023-03-22T10:22:16.457Z,8.27
2023-03-22T10:23:24.044Z,7.80
2023-03-22T10:24:33.203Z,7.90
2023-03-22T10:25:41.646Z,6.80
2023-03-22T10:26:47.628Z,6.13
2023-03-22T10:27:51.733Z,7.45
2023-03-22T10:30:02.225Z,6.93
2023-03-22T10:31:07.034Z,6.90
2023-03-22T10:32:19.074Z,8.55
2023-03-22T10:33:29.488Z,7.95
2023-03-22T10:35:33.844Z,7.05
2023-03-22T10:36:39.054Z,8.50
2023-03-22T10:37:42.897Z,8.77
2023-03-22T10:38:52.517Z,8.73
2023-03-22T10:39:56.905Z,7.65
2023-03-22T10:41:01.132Z,7.10
2023-03-22T10:42:08.327Z,8.68
2023-03-22T10:43:15.994Z,8.02
2023-03-22T10:44:19.852Z,7.13
2023-03-22T10:45:23.694Z,7.90
2023-03-22T10:46:28.649Z,7.95
2023-03-22T10:47:40.807Z,7.55
2023-03-22T10:48:46.850Z,8.05
2023-03-22T10:49:55.345Z,8.43
2023-03-22T10:51:00.025Z,7.75
2023-03-22T10:52:17.782Z,8.23
2023-03-22T10:53:38.742Z,7.93
2023-03-22T10:54:40.805Z,8.90
2023-03-22T10:55:44.521Z,7.47
2023-03-22T10:56:46.604Z,7.88
2023-03-22T10:58:12.458Z,9.00
2023-03-22T10:59:51.895Z,7.72
2023-03-22T11:00:57.278Z,8.35
2023-03-22T11:02:02.044Z,7.05
2023-03-22T11:03:07.320Z,8.65
2023-03-22T11:04:18.420Z,8.68
2023-03-22T11:05:25.130Z,8.93
2023-03-22T11:06:30.363Z,8.98
2023-03-22T11:07:32.393Z,9.18
2023-03-22T11:08:52.717Z,7.97
2023-03-22T11:10:13.458Z,6.97
2023-03-22T11:11:36.849Z,8.05
2023-03-22T11:12:42.560Z,8.32
2023-03-22T11:13:50.897Z,8.60
2023-03-22T11:14:53.097Z,8.73
2023-03-22T11:16:02.534Z,9.32
2023-03-22T11:17:13.225Z,8.38
2023-03-22T11:18:17.096Z,8.13
2023-03-22T11:19:28.536Z,8.13
2023-03-22T11:20:32.366Z,8.00
2023-03-22T11:21:34.617Z,8.13
2023-03-22T11:22:40.508Z,8.85
2023-03-22T11:23:56.702Z,8.27
2023-03-22T11:24:59.685Z,8.25
2023-03-22T11:26:26.640Z,8.05
2023-03-22T11:27:31.665Z,8.18
2023-03-22T11:28:37.763Z,8.32
2023-03-22T11:30:01.617Z,8.65
2023-03-22T11:31:11.229Z,8.25
2023-03-22T11:32:30.379Z,8.35
2023-03-22T11:33:33.837Z,7.40
2023-03-22T11:34:36.790Z,8.07
2023-03-22T11:35:39.773Z,7.38
2023-03-22T11:37:52.882Z,7.28
2023-03-22T11:39:00.470Z,6.65
2023-03-22T11:40:05.425Z,7.78
2023-03-22T11:41:13.567Z,7.68
2023-03-22T11:42:21.180Z,7.28
2023-03-22T11:43:27.832Z,7.18
2023-03-22T11:44:35.112Z,7.32
2023-03-22T11:45:43.217Z,6.82
2023-03-22T11:46:53.092Z,7.13
2023-03-22T11:48:02.371Z,6.63
2023-03-22T11:49:17.093Z,6.55
2023-03-22T11:50:46.173Z,5.40
2023-03-22T11:51:49.146Z,6.78
2023-03-22T11:52:51.454Z,7.20
2023-03-22T11:53:59.623Z,6.72
2023-03-22T11:55:02.134Z,7.22
2023-03-22T11:56:07.820Z,7.95
2023-03-22T11:57:32.429Z,7.22
2023-03-22T11:58:41.184Z,7.22
2023-03-22T12:00:07.343Z,7.75
2023-03-22T12:01:18.540Z,7.80
2023-03-22T12:02:28.792Z,6.32
2023-03-22T12:04:44.500Z,6.63
2023-03-22T12:05:50.065Z,6.15
2023-03-22T12:07:00.015Z,7.13
2023-03-22T12:08:19.631Z,6.72
2023-03-22T12:09:53.468Z,7.75
2023-03-22T12:11:26.148Z,7.47
2023-03-22T12:12:33.610Z,7.82
2023-03-22T12:14:05.485Z,7.72
2023-03-22T12:15:21.297Z,6.47
2023-03-22T12:16:29.692Z,8.40
2023-03-22T12:18:01.909Z,8.13
2023-03-22T12:19:23.880Z,6.55
2023-03-22T12:20:42.435Z,6.22
2023-03-22T12:21:46.538Z,5.90
2023-03-22T12:22:55.387Z,7.10
2023-03-22T12:24:02.636Z,6.78
2023-03-22T12:25:11.342Z,6.53
2023-03-22T12:26:26.615Z,6.22
2023-03-22T12:27:36.134Z,8.30
2023-03-22T12:28:50.026Z,6.90
2023-03-22T12:30:01.551Z,7.28
2023-03-22T12:31:08.274Z,7.20
2023-03-22T12:32:19.589Z,7.30
2023-03-22T12:33:56.742Z,7.60
2023-03-22T12:35:16.078Z,7.32
2023-03-22T12:36:32.275Z,6.95
2023-03-22T12:37:36.271Z,7.35
2023-03-22T12:40:11.476Z,6.55
2023-03-22T12:41:17.269Z,6.00
2023-03-22T12:42:26.121Z,6.60
2023-03-22T12:43:30.965Z,7.93
2023-03-22T12:44:39.618Z,7.05
2023-03-22T12:45:48.009Z,8.32
2023-03-22T12:46:57.086Z,6.32
2023-03-22T12:48:17.529Z,6.43
2023-03-22T12:49:41.682Z,7.35
2023-03-22T12:51:01.143Z,5.75
2023-03-22T12:52:15.877Z,6.80
2023-03-22T12:53:20.393Z,7.07
2023-03-22T12:54:36.040Z,7.30
2023-03-22T12:55:41.334Z,6.07
2023-03-22T12:56:47.337Z,6.22
2023-03-22T12:57:54.854Z,6.05
2023-03-22T12:59:01.491Z,6.53
2023-03-22T13:00:10.640Z,6.05
2023-03-22T13:01:40.205Z,6.70
2023-03-22T13:02:56.226Z,5.15
2023-03-22T13:03:59.745Z,6.80
2023-03-22T13:05:05.338Z,6.03
2023-03-22T13:06:29.994Z,4.95
2023-03-22T13:07:53.572Z,6.88
2023-03-22T13:09:09.036Z,5.63
2023-03-22T13:10:30.340Z,6.70
2023-03-22T13:11:32.410Z,5.10
2023-03-22T13:12:34.968Z,6.07
2023-03-22T13:13:47.222Z,6.22
2023-03-22T13:14:52.249Z,6.57
2023-03-22T13:16:24.838Z,6.15
2023-03-22T13:17:27.677Z,5.15
2023-03-22T13:18:33.556Z,5.95
2023-03-22T13:19:37.744Z,5.15
2023-03-22T13:20:41.363Z,6.97
2023-03-22T13:21:43.631Z,6.28
2023-03-22T13:22:48.647Z,4.80
2023-03-22T13:24:01.444Z,5.60
2023-03-22T13:25:13.292Z,6.05
2023-03-22T13:26:16.436Z,6.28
2023-03-22T13:27:18.281Z,6.72
2023-03-22T13:28:24.763Z,5.43
2023-03-22T13:29:38.355Z,5.72
2023-03-22T13:30:55.041Z,6.05
2023-03-22T13:32:02.202Z,6.15
2023-03-22T13:33:10.584Z,6.38
2023-03-22T13:34:20.658Z,5.53
2023-03-22T13:35:28.778Z,5.95
2023-03-22T13:36:32.278Z,5.25
2023-03-22T13:37:52.394Z,5.53
2023-03-22T13:39:04.900Z,5.13
2023-03-22T13:40:26.554Z,5.72
2023-03-22T13:41:31.376Z,4.95
2023-03-22T13:42:39.075Z,5.47
2023-03-22T13:43:44.385Z,6.20
2023-03-22T13:44:57.355Z,6.05
2023-03-22T13:46:17.865Z,5.78
2023-03-22T13:47:32.098Z,6.18
2023-03-22T13:48:52.736Z,4.97
2023-03-22T13:50:01.364Z,5.20
2023-03-22T13:51:25.767Z,6.18
2023-03-22T13:52:35.950Z,5.85
2023-03-22T13:53:41.675Z,5.80
2023-03-22T13:54:49.774Z,5.40
2023-03-22T13:55:52.017Z,5.63
2023-03-22T13:57:02.329Z,6.32
2023-03-22T13:58:06.121Z,6.43
2023-03-22T13:59:23.233Z,5.93
2023-03-22T14:00:31.505Z,5.53
2023-03-22T14:01:47.628Z,5.55
2023-03-22T14:02:50.847Z,6.30
2023-03-22T14:03:54.060Z,5.47
2023-03-22T14:05:08.296Z,5.57
2023-03-22T14:06:26.318Z,5.63
2023-03-22T14:07:56.627Z,5.65
2023-03-22T14:09:02.936Z,5.13
2023-03-22T14:10:26.459Z,5.07
2023-03-22T14:11:49.753Z,5.82
2023-03-22T14:12:57.717Z,4.68
2023-03-22T14:14:05.413Z,5.72
2023-03-22T14:15:09.226Z,5.75
2023-03-22T14:16:18.669Z,5.40
2023-03-22T14:17:56.431Z,5.22
2023-03-22T14:18:58.852Z,6.55
2023-03-22T14:20:05.076Z,5.97
2023-03-22T14:21:13.661Z,5.82
